Time;durP1;ratioP1;P1;durP2;ratioP2;P2;SDS_P1;SDS_P2;PMS_P1;PMS_P2;Temp;Humidity;BMP_temperature;BMP_pressure;BME280_temperature;BME280_humidity;BME280_pressure;Samples;Min_cycle;Max_cycle;Signal;HPM_P1;HPM_P2
2024/03/21 21:07:00;;;;;;;;;31.25;27.50;;;;;;;;5104257;27;13556;-73
2024/03/21 21:09:26;;;;;;;;;55.75;46.50;;;;;;;;5107143;28;11520;-68
2024/03/21 21:11:51;;;;;;;;;31.25;30.25;;;;;;;;5104907;28;8828;-69
2024/03/21 21:14:16;;;;;;;;;25.75;24.25;;;;;;;;5107522;28;8787;-70
2024/03/21 21:16:42;;;;;;;;;33.00;25.75;;;;;;;;5107704;28;8803;-70
2024/03/21 21:19:07;;;;;;;;;32.75;27.00;;;;;;;;5107547;28;9529;-70
2024/03/21 21:21:35;;;;;;;;;32.00;27.00;;;;;;;;5046504;27;11330;-69
2024/03/21 21:24:00;;;;;;;;;28.50;24.25;;;;;;;;5066644;28;8859;-68
2024/03/21 21:26:25;;;;;;;;;26.50;24.00;;;;;;;;5066561;28;11547;-68
2024/03/21 21:28:51;;;;;;;;;27.25;24.75;;;;;;;;5066473;28;8972;-69
2024/03/21 21:31:16;;;;;;;;;17.00;13.00;;;;;;;;5066740;28;8801;-69
2024/03/21 21:33:43;;;;;;;;;30.00;25.00;;;;;;;;5066672;28;9604;-69
2024/03/21 21:36:12;;;;;;;;;22.25;21.75;;;;;;;;5066642;28;8827;-69
2024/03/21 21:38:38;;;;;;;;;28.00;26.50;;;;;;;;5066383;28;11441;-68
2024/03/21 21:41:04;;;;;;;;;34.75;28.25;;;;;;;;5065184;28;11562;-68
2024/03/21 21:43:33;;;;;;;;;24.50;24.50;;;;;;;;5065419;28;8890;-69
2024/03/21 21:45:59;;;;;;;;;29.00;24.25;;;;;;;;5065106;28;11563;-68
2024/03/21 21:48:24;;;;;;;;;26.50;24.00;;;;;;;;5065064;28;11653;-69
2024/03/21 21:50:59;;;;;;;;;29.50;25.00;;;;;;;;5065721;28;8886;-69
2024/03/21 21:53:25;;;;;;;;;33.00;28.00;;;;;;;;5065629;28;8800;-69
2024/03/21 21:55:57;;;;;;;;;30.25;26.00;;;;;;;;5005568;28;12513;-70
2024/03/21 21:58:23;;;;;;;;;27.00;25.00;;;;;;;;5045253;28;9558;-70
2024/03/21 22:00:48;;;;;;;;;26.00;23.75;;;;;;;;5051197;28;11531;-69
2024/03/21 22:03:14;;;;;;;;;31.50;28.50;;;;;;;;5086272;28;8798;-69
2024/03/21 22:05:39;;;;;;;;;30.50;27.25;;;;;;;;5086054;28;9566;-70
2024/03/21 22:08:05;;;;;;;;;27.00;22.00;;;;;;;;5086364;28;8788;-68
2024/03/21 22:10:34;;;;;;;;;33.00;28.25;;;;;;;;5086100;28;8796;-70
2024/03/21 22:13:00;;;;;;;;;25.50;23.00;;;;;;;;5085941;28;8915;-70
2024/03/21 22:15:25;;;;;;;;;26.75;22.50;;;;;;;;5085954;28;11569;-71
2024/03/21 22:17:50;;;;;;;;;24.75;24.50;;;;;;;;5057450;28;8812;-72
2024/03/21 22:20:15;;;;;;;;;31.00;24.50;;;;;;;;5072514;28;8804;-70
2024/03/21 22:22:41;;;;;;;;;30.00;26.75;;;;;;;;5072328;28;8804;-69
2024/03/21 22:25:06;;;;;;;;;31.50;25.50;;;;;;;;5072209;28;8819;-69
2024/03/21 22:27:31;;;;;;;;;28.75;23.50;;;;;;;;5072572;28;8796;-68
2024/03/21 22:29:56;;;;;;;;;26.50;23.25;;;;;;;;5072597;28;8800;-71
2024/03/21 22:32:22;;;;;;;;;25.00;23.50;;;;;;;;5072577;28;8855;-70
2024/03/21 22:34:47;;;;;;;;;32.25;26.25;;;;;;;;5072456;28;8994;-70
2024/03/21 22:37:12;;;;;;;;;26.00;23.50;;;;;;;;5072379;28;8894;-71
2024/03/21 22:39:37;;;;;;;;;26.50;26.00;;;;;;;;5070890;28;8807;-70
2024/03/21 22:42:03;;;;;;;;;25.75;25.50;;;;;;;;5070253;28;8897;-71
2024/03/21 22:44:28;;;;;;;;;29.00;24.75;;;;;;;;5070108;28;8830;-70
2024/03/21 22:46:53;;;;;;;;;32.25;27.50;;;;;;;;5070020;28;9538;-70
2024/03/21 22:49:18;;;;;;;;;29.25;26.25;;;;;;;;5048839;28;9890;-70
2024/03/21 22:51:44;;;;;;;;;29.50;27.25;;;;;;;;5050159;28;8840;-69
2024/03/21 22:54:09;;;;;;;;;34.75;29.75;;;;;;;;5032576;28;8880;-69
2024/03/21 22:56:35;;;;;;;;;29.50;25.75;;;;;;;;5051947;28;8786;-70
2024/03/21 22:59:00;;;;;;;;;32.75;27.75;;;;;;;;5052218;28;8790;-70
2024/03/21 23:01:25;;;;;;;;;27.75;26.25;;;;;;;;5034276;28;8790;-69
2024/03/21 23:03:51;;;;;;;;;30.00;27.50;;;;;;;;5051932;28;8860;-68
2024/03/21 23:06:16;;;;;;;;;29.00;27.50;;;;;;;;5051555;28;8810;-69
2024/03/21 23:08:41;;;;;;;;;32.25;28.00;;;;;;;;5051673;28;8810;-69
2024/03/21 23:11:06;;;;;;;;;31.00;28.75;;;;;;;;5051841;28;8771;-69
2024/03/21 23:13:32;;;;;;;;;32.75;29.75;;;;;;;;5051808;28;8791;-68
